Time,TemperatureF,DewpointF,PressureIn,WindDirection,WindDirectionDegrees,WindSpeedMPH,WindSpeedGustMPH,Humidity,HourlyPrecipIn,Conditions,Clouds,dailyrainin,SoftwareType,DateUTC
2013-01-09 00:05:00,25.8,20.0,30.14,East,98,0.0,1.0,78,0.00,,,0.00,weatherlink.com 1.10,2013-01-09 07:05:00,
2013-01-09 00:26:00,25.4,20.0,30.14,WNW,286,2.0,3.0,80,0.00,,,0.00,weatherlink.com 1.10,2013-01-09 07:26:00,
2013-01-09 00:37:00,25.5,20.0,30.14,NE,48,0.0,2.0,80,0.00,,,0.00,weatherlink.com 1.10,2013-01-09 07:37:00,
2013-01-09 00:51:00,25.7,20.0,30.14,East,81,1.0,2.0,80,0.00,,,0.00,weatherlink.com 1.10,2013-01-09 07:51:00,
2013-01-09 01:07:00,25.5,20.0,30.15,ENE,63,0.0,0.0,79,0.00,,,0.00,weatherlink.com 1.10,2013-01-09 08:07:00,
2013-01-09 01:22:00,25.1,20.0,30.15,WSW,249,0.0,3.0,81,0.00,,,0.00,weatherlink.com 1.10,2013-01-09 08:22:00,
2013-01-09 01:37:00,25.1,20.0,30.15,ENE,66,0.0,2.0,80,0.00,,,0.00,weatherlink.com 1.10,2013-01-09 08:37:00,
2013-01-09 01:52:00,25.0,20.0,30.16,WNW,294,0.0,1.0,81,0.00,,,0.00,weatherlink.com 1.10,2013-01-09 08:52:00,
2013-01-09 02:07:00,24.9,20.0,30.16,WSW,241,1.0,2.0,81,0.00,,,0.00,weatherlink.com 1.10,2013-01-09 09:07:00,
2013-01-09 02:22:00,25.0,20.0,30.16,East,98,0.0,2.0,81,0.00,,,0.00,weatherlink.com 1.10,2013-01-09 09:22:00,
2013-01-09 02:37:00,24.7,20.0,30.16,WSW,241,2.0,2.0,81,0.00,,,0.00,weatherlink.com 1.10,2013-01-09 09:37:00,
2013-01-09 02:52:00,24.5,20.0,30.17,NNE,32,0.0,2.0,82,0.00,,,0.00,weatherlink.com 1.10,2013-01-09 09:52:00,
2013-01-09 03:07:00,24.2,20.0,30.17,NW,312,0.0,2.0,83,0.00,,,0.00,weatherlink.com 1.10,2013-01-09 10:07:00,
2013-01-09 03:23:00,23.9,20.0,30.17,East,92,0.0,2.0,84,0.00,,,0.00,weatherlink.com 1.10,2013-01-09 10:23:00,
2013-01-09 03:38:00,23.4,19.0,30.16,South,185,0.0,0.0,84,0.00,,,0.00,weatherlink.com 1.10,2013-01-09 10:38:00,
2013-01-09 03:53:00,23.2,19.0,30.16,South,185,0.0,1.0,85,0.00,,,0.00,weatherlink.com 1.10,2013-01-09 10:53:00,
2013-01-09 04:08:00,23.0,19.0,30.16,East,88,0.0,1.0,86,0.00,,,0.00,weatherlink.com 1.10,2013-01-09 11:08:00,
2013-01-09 04:23:00,23.1,20.0,30.16,SE,146,1.0,1.0,87,0.00,,,0.00,weatherlink.com 1.10,2013-01-09 11:23:00,
2013-01-09 04:40:00,22.8,19.0,30.16,SSW,201,0.0,1.0,86,0.00,,,0.00,weatherlink.com 1.10,2013-01-09 11:40:00,
2013-01-09 04:53:00,22.5,19.0,30.16,SSW,201,0.0,0.0,86,0.00,,,0.00,weatherlink.com 1.10,2013-01-09 11:53:00,
2013-01-09 05:08:00,22.2,19.0,30.17,SSW,201,0.0,0.0,86,0.00,,,0.00,weatherlink.com 1.10,2013-01-09 12:08:00,
2013-01-09 05:23:00,22.0,19.0,30.17,SSW,200,0.0,0.0,87,0.00,,,0.00,weatherlink.com 1.10,2013-01-09 12:23:00,
2013-01-09 05:39:00,21.6,18.0,30.17,WSW,248,0.0,0.0,87,0.00,,,0.00,weatherlink.com 1.10,2013-01-09 12:39:00,
2013-01-09 05:52:00,21.3,18.0,30.18,WSW,248,0.0,0.0,88,0.00,,,0.00,weatherlink.com 1.10,2013-01-09 12:52:00,
2013-01-09 06:07:00,21.3,19.0,30.19,NE,38,0.0,1.0,89,0.00,,,0.00,weatherlink.com 1.10,2013-01-09 13:07:00,
2013-01-09 06:22:00,21.4,19.0,30.19,NE,49,0.0,2.0,89,0.00,,,0.00,weatherlink.com 1.10,2013-01-09 13:22:00,
2013-01-09 06:37:00,21.3,19.0,30.20,North,360,0.0,1.0,89,0.00,,,0.00,weatherlink.com 1.10,2013-01-09 13:37:00,
2013-01-09 06:52:00,21.2,19.0,30.21,South,190,0.0,2.0,89,0.00,,,0.00,weatherlink.com 1.10,2013-01-09 13:52:00,
2013-01-09 07:07:00,21.1,18.0,30.23,SE,136,0.0,1.0,89,0.00,,,0.00,weatherlink.com 1.10,2013-01-09 14:07:00,
2013-01-09 07:22:00,21.2,19.0,30.23,NW,318,0.0,1.0,89,0.00,,,0.00,weatherlink.com 1.10,2013-01-09 14:22:00,
2013-01-09 07:37:00,21.2,19.0,30.24,NW,318,0.0,0.0,90,0.00,,,0.00,weatherlink.com 1.10,2013-01-09 14:37:00,
2013-01-09 07:52:00,21.1,18.0,30.24,NW,318,0.0,0.0,89,0.00,,,0.00,weatherlink.com 1.10,2013-01-09 14:52:00,
2013-01-09 08:07:00,21.2,19.0,30.25,North,355,0.0,0.0,90,0.00,,,0.00,weatherlink.com 1.10,2013-01-09 15:07:00,
2013-01-09 08:23:00,21.5,19.0,30.24,North,355,0.0,0.0,91,0.00,,,0.00,weatherlink.com 1.10,2013-01-09 15:23:00,
2013-01-09 08:37:00,22.7,21.0,30.24,North,355,0.0,0.0,92,0.00,,,0.00,weatherlink.com 1.10,2013-01-09 15:37:00,
2013-01-09 08:53:00,25.5,24.0,30.23,North,355,0.0,0.0,92,0.00,,,0.00,weatherlink.com 1.10,2013-01-09 15:53:00,
2013-01-09 09:08:00,30.8,26.0,30.23,North,5,0.0,1.0,82,0.00,,,0.00,weatherlink.com 1.10,2013-01-09 16:08:00,
2013-01-09 09:23:00,35.6,28.0,30.22,NE,46,0.0,0.0,75,0.00,,,0.00,weatherlink.com 1.10,2013-01-09 16:23:00,
2013-01-09 09:38:00,40.5,30.0,30.22,East,82,0.0,1.0,67,0.00,,,0.00,weatherlink.com 1.10,2013-01-09 16:38:00,
2013-01-09 09:53:00,44.6,30.0,30.21,WNW,300,2.0,5.0,56,0.00,,,0.00,weatherlink.com 1.10,2013-01-09 16:53:00,
2013-01-09 10:08:00,47.4,29.0,30.20,NW,304,0.0,3.0,49,0.00,,,0.00,weatherlink.com 1.10,2013-01-09 17:08:00,
2013-01-09 10:23:00,50.4,29.0,30.20,North,355,0.0,1.0,44,0.00,,,0.00,weatherlink.com 1.10,2013-01-09 17:23:00,
2013-01-09 10:38:00,52.9,30.0,30.20,East,86,0.0,1.0,42,0.00,,,0.00,weatherlink.com 1.10,2013-01-09 17:38:00,
2013-01-09 10:53:00,55.0,30.0,30.20,SE,130,0.0,2.0,39,0.00,,,0.00,weatherlink.com 1.10,2013-01-09 17:53:00,
2013-01-09 11:08:00,56.4,29.0,30.18,East,86,1.0,2.0,35,0.00,,,0.00,weatherlink.com 1.10,2013-01-09 18:08:00,
2013-01-09 11:25:00,57.6,29.0,30.17,East,101,0.0,3.0,33,0.00,,,0.00,weatherlink.com 1.10,2013-01-09 18:25:00,
2013-01-09 11:38:00,58.9,28.0,30.16,SSW,208,0.0,2.0,31,0.00,,,0.00,weatherlink.com 1.10,2013-01-09 18:38:00,
2013-01-09 11:53:00,60.3,28.0,30.14,SSW,200,0.0,4.0,29,0.00,,,0.00,weatherlink.com 1.10,2013-01-09 18:53:00,
2013-01-09 12:08:00,60.7,26.0,30.12,ESE,105,1.0,4.0,27,0.00,,,0.00,weatherlink.com 1.10,2013-01-09 19:08:00,
2013-01-09 12:23:00,61.6,25.0,30.11,SW,217,0.0,2.0,25,0.00,,,0.00,weatherlink.com 1.10,2013-01-09 19:23:00,
2013-01-09 12:38:00,62.7,25.0,30.09,East,90,0.0,2.0,24,0.00,,,0.00,weatherlink.com 1.10,2013-01-09 19:38:00,
2013-01-09 12:54:00,63.2,26.0,30.09,East,101,0.0,3.0,24,0.00,,,0.00,weatherlink.com 1.10,2013-01-09 19:54:00,
2013-01-09 13:09:00,64.0,25.0,30.08,WSW,240,0.0,3.0,23,0.00,,,0.00,weatherlink.com 1.10,2013-01-09 20:09:00,
2013-01-09 13:24:00,65.0,25.0,30.07,ESE,102,0.0,1.0,22,0.00,,,0.00,weatherlink.com 1.10,2013-01-09 20:24:00,
2013-01-09 13:39:00,65.8,26.0,30.05,SSE,155,2.0,4.0,22,0.00,,,0.00,weatherlink.com 1.10,2013-01-09 20:39:00,
2013-01-09 13:54:00,67.3,25.0,30.04,East,90,0.0,4.0,20,0.00,,,0.00,weatherlink.com 1.10,2013-01-09 20:54:00,
2013-01-09 14:09:00,67.8,24.0,30.04,ENE,74,0.0,3.0,19,0.00,,,0.00,weatherlink.com 1.10,2013-01-09 21:09:00,
2013-01-09 14:24:00,68.2,24.0,30.03,ESE,113,0.0,3.0,19,0.00,,,0.00,weatherlink.com 1.10,2013-01-09 21:24:00,
2013-01-09 14:39:00,70.1,25.0,30.02,South,173,1.0,4.0,18,0.00,,,0.00,weatherlink.com 1.10,2013-01-09 21:39:00,
2013-01-09 14:54:00,69.5,24.0,30.02,ESE,104,2.0,3.0,18,0.00,,,0.00,weatherlink.com 1.10,2013-01-09 21:54:00,
2013-01-09 15:11:00,70.4,25.0,30.00,South,176,0.0,5.0,18,0.00,,,0.00,weatherlink.com 1.10,2013-01-09 22:11:00,
2013-01-09 15:24:00,70.2,22.0,30.01,SE,132,0.0,3.0,16,0.00,,,0.00,weatherlink.com 1.10,2013-01-09 22:24:00,
2013-01-09 15:39:00,71.4,24.0,30.01,SSW,205,0.0,3.0,17,0.00,,,0.00,weatherlink.com 1.10,2013-01-09 22:39:00,
2013-01-09 15:54:00,71.7,23.0,30.00,ESE,110,0.0,3.0,16,0.00,,,0.00,weatherlink.com 1.10,2013-01-09 22:54:00,
2013-01-09 16:09:00,68.0,23.0,30.00,SW,215,2.0,6.0,18,0.00,,,0.00,weatherlink.com 1.10,2013-01-09 23:09:00,
2013-01-09 16:24:00,65.7,22.0,29.99,SSW,212,0.0,4.0,19,0.00,,,0.00,weatherlink.com 1.10,2013-01-09 23:24:00,
2013-01-09 16:39:00,63.4,23.0,30.00,SW,223,0.0,3.0,21,0.00,,,0.00,weatherlink.com 1.10,2013-01-09 23:39:00,
2013-01-09 16:54:00,60.7,25.0,29.99,SW,223,0.0,0.0,25,0.00,,,0.00,weatherlink.com 1.10,2013-01-09 23:54:00,
2013-01-09 17:09:00,57.7,24.0,29.99,SW,223,0.0,0.0,27,0.00,,,0.00,weatherlink.com 1.10,2013-01-10 00:09:00,
2013-01-09 17:24:00,54.5,23.0,29.99,WNW,286,0.0,1.0,30,0.00,,,0.00,weatherlink.com 1.10,2013-01-10 00:24:00,
2013-01-09 17:39:00,51.9,24.0,29.98,North,9,0.0,0.0,34,0.00,,,0.00,weatherlink.com 1.10,2013-01-10 00:39:00,
2013-01-09 17:54:00,48.8,23.0,29.98,North,360,0.0,1.0,37,0.00,,,0.00,weatherlink.com 1.10,2013-01-10 00:54:00,
2013-01-09 18:09:00,46.3,24.0,29.98,North,360,0.0,0.0,42,0.00,,,0.00,weatherlink.com 1.10,2013-01-10 01:09:00,
2013-01-09 18:24:00,44.4,24.0,29.98,North,360,0.0,0.0,45,0.00,,,0.00,weatherlink.com 1.10,2013-01-10 01:24:00,
2013-01-09 18:39:00,42.5,24.0,29.98,North,360,0.0,0.0,48,0.00,,,0.00,weatherlink.com 1.10,2013-01-10 01:39:00,
2013-01-09 18:56:00,40.7,25.0,29.99,North,360,0.0,0.0,53,0.00,,,0.00,weatherlink.com 1.10,2013-01-10 01:56:00,
2013-01-09 19:09:00,39.5,24.0,29.99,North,360,0.0,0.0,54,0.00,,,0.00,weatherlink.com 1.10,2013-01-10 02:09:00,
2013-01-09 19:24:00,38.2,24.0,29.99,North,360,0.0,0.0,56,0.00,,,0.00,weatherlink.com 1.10,2013-01-10 02:24:00,
2013-01-09 19:39:00,36.9,23.0,29.99,North,360,0.0,0.0,58,0.00,,,0.00,weatherlink.com 1.10,2013-01-10 02:39:00,
2013-01-09 19:54:00,35.9,23.0,29.99,North,360,0.0,0.0,61,0.00,,,0.00,weatherlink.com 1.10,2013-01-10 02:54:00,
2013-01-09 20:09:00,34.9,23.0,29.98,North,360,0.0,1.0,63,0.00,,,0.00,weatherlink.com 1.10,2013-01-10 03:09:00,
2013-01-09 20:24:00,34.1,22.0,29.98,North,360,0.0,0.0,62,0.00,,,0.00,weatherlink.com 1.10,2013-01-10 03:24:00,
2013-01-09 20:39:00,33.3,23.0,29.98,North,360,0.0,0.0,65,0.00,,,0.00,weatherlink.com 1.10,2013-01-10 03:39:00,
2013-01-09 20:55:00,32.3,23.0,29.98,North,360,0.0,0.0,68,0.00,,,0.00,weatherlink.com 1.10,2013-01-10 03:55:00,
2013-01-09 21:10:00,31.5,23.0,29.97,North,360,0.0,0.0,70,0.00,,,0.00,weatherlink.com 1.10,2013-01-10 04:10:00,
2013-01-09 21:25:00,30.9,23.0,29.97,North,360,0.0,0.0,72,0.00,,,0.00,weatherlink.com 1.10,2013-01-10 04:25:00,
2013-01-09 21:40:00,30.3,23.0,29.98,North,360,0.0,0.0,73,0.00,,,0.00,weatherlink.com 1.10,2013-01-10 04:40:00,
2013-01-09 21:55:00,29.5,22.0,29.98,North,360,0.0,0.0,74,0.00,,,0.00,weatherlink.com 1.10,2013-01-10 04:55:00,
2013-01-09 22:10:00,28.8,22.0,29.98,North,360,0.0,0.0,76,0.00,,,0.00,weatherlink.com 1.10,2013-01-10 05:10:00,
2013-01-09 22:25:00,28.3,22.0,29.97,North,360,0.0,0.0,78,0.00,,,0.00,weatherlink.com 1.10,2013-01-10 05:25:00,
2013-01-09 22:55:00,27.7,22.0,29.98,North,360,0.0,0.0,79,0.00,,,0.00,weatherlink.com 1.10,2013-01-10 05:55:00,
2013-01-09 23:10:00,27.3,22.0,29.98,North,360,0.0,0.0,80,0.00,,,0.00,weatherlink.com 1.10,2013-01-10 06:10:00,
2013-01-09 23:25:00,26.9,22.0,29.98,North,360,0.0,0.0,81,0.00,,,0.00,weatherlink.com 1.10,2013-01-10 06:25:00,
2013-01-09 23:40:00,26.5,22.0,29.98,North,360,0.0,0.0,82,0.00,,,0.00,weatherlink.com 1.10,2013-01-10 06:40:00,
2013-01-09 23:55:00,26.5,22.0,29.97,North,360,0.0,0.0,83,0.00,,,0.00,weatherlink.com 1.10,2013-01-10 06:55:00,